Terminal Aerodrome Forecast
Issued by NWS Mt. Holly, NJ

Current Version | Previous Version | Text Only | Print | Product List | Glossary On
Versions: 1 2 3 4 5 6 7 8 9 10 11 12 13
000
FTUS41 KPHI 281700
TAFTTN
TAF
KTTN 281740Z 2818/2918 30006KT P6SM SCT040 OVC100
     FM290300 36006KT P6SM BKN150
     FM291500 02004KT P6SM SCT250=

USA.gov is the U.S. government's official web portal to all federal, state and local government web resources and services.